Rothesay, Canada
Current Conditions -  °F | °C
As of 12:00 PM on Saturday 25 Oct 2014 (Local Time) from CYSJ Reporting Station
Light Rain Light Rain  
Wind Chill: 41°   Ceiling: 800
Heat Index: 45°   Visibility: 6mi
Dew Point: 43°   Wind: 7mph
Humidity: 93%   Direction: 330°NNW
Pressure: 29.57"   Gusts: NA
Location:  45.39°N, 65.99°W
Report Text: CYSJ 251500Z 33006KT 6SM -RA BR OVC008 07/06 A2957 RMK SC8 SLP016
Loading
Personal Weather Stations






























Interactive Weather Map
Tropical Storm Tracking
New forecast layout! Learn more

10-Day Weather Forecast

Advertisements
Track Severe Weather on mobile